sensor_id;sensor_type;location;lat;lon;timestamp;pressure;altitude;pressure_sealevel;temperature;humidity
65553;BME280;52465;51.560;14.368;2023-03-03T00:00:33;100871.22;;;8.10;63.22
65553;BME280;52465;51.560;14.368;2023-03-03T00:03:03;100833.63;;;7.92;62.90
65553;BME280;52465;51.560;14.368;2023-03-03T00:05:32;100844.00;;;8.03;63.59
65553;BME280;52465;51.560;14.368;2023-03-03T00:07:58;100855.69;;;8.09;62.73
65553;BME280;52465;51.560;14.368;2023-03-03T00:10:24;100847.28;;;8.05;62.66
65553;BME280;52465;51.560;14.368;2023-03-03T00:12:50;100859.97;;;8.10;62.44
65553;BME280;52465;51.560;14.368;2023-03-03T00:15:18;100846.84;;;8.00;62.80
65553;BME280;52465;51.560;14.368;2023-03-03T00:17:46;100851.00;;;8.03;62.52
65553;BME280;52465;51.560;14.368;2023-03-03T00:20:27;100866.97;;;8.09;62.98
65553;BME280;52465;51.560;14.368;2023-03-03T00:22:54;100836.22;;;7.92;62.47
65553;BME280;52465;51.560;14.368;2023-03-03T00:28:31;100828.31;;;7.82;62.87
65553;BME280;52465;51.560;14.368;2023-03-03T00:30:59;100850.41;;;7.99;62.80
65553;BME280;52465;51.560;14.368;2023-03-03T00:33:26;100855.81;;;8.07;63.02
65553;BME280;52465;51.560;14.368;2023-03-03T00:35:56;100862.81;;;8.07;62.40
65553;BME280;52465;51.560;14.368;2023-03-03T00:38:22;100847.34;;;7.94;62.98
65553;BME280;52465;51.560;14.368;2023-03-03T00:40:48;100867.31;;;8.05;63.15
65553;BME280;52465;51.560;14.368;2023-03-03T00:43:25;100858.47;;;7.96;63.13
65553;BME280;52465;51.560;14.368;2023-03-03T00:45:56;100862.13;;;8.05;63.16
65553;BME280;52465;51.560;14.368;2023-03-03T00:51:01;100867.38;;;7.93;63.12
65553;BME280;52465;51.560;14.368;2023-03-03T00:53:30;100884.75;;;8.04;62.71
65553;BME280;52465;51.560;14.368;2023-03-03T00:55:56;100857.63;;;7.95;63.13
65553;BME280;52465;51.560;14.368;2023-03-03T00:58:23;100863.44;;;7.99;63.08
65553;BME280;52465;51.560;14.368;2023-03-03T01:00:51;100852.69;;;7.92;62.71
65553;BME280;52465;51.560;14.368;2023-03-03T01:03:19;100860.16;;;7.97;63.29
65553;BME280;52465;51.560;14.368;2023-03-03T01:05:46;100821.00;;;7.76;62.95
65553;BME280;52465;51.560;14.368;2023-03-03T01:08:12;100828.06;;;7.85;62.86
65553;BME280;52465;51.560;14.368;2023-03-03T01:10:44;100803.81;;;7.74;62.61
65553;BME280;52465;51.560;14.368;2023-03-03T01:13:15;100810.13;;;7.71;62.34
65553;BME280;52465;51.560;14.368;2023-03-03T01:15:42;100820.28;;;7.74;62.50
65553;BME280;52465;51.560;14.368;2023-03-03T01:18:09;100833.53;;;7.82;62.88
65553;BME280;52465;51.560;14.368;2023-03-03T01:20:35;100852.78;;;7.91;62.78
65553;BME280;52465;51.560;14.368;2023-03-03T01:23:00;100838.75;;;7.82;63.00
65553;BME280;52465;51.560;14.368;2023-03-03T01:25:26;100828.31;;;7.82;62.93
65553;BME280;52465;51.560;14.368;2023-03-03T01:27:51;100809.97;;;7.73;62.68
65553;BME280;52465;51.560;14.368;2023-03-03T01:30:17;100831.50;;;7.86;62.28
65553;BME280;52465;51.560;14.368;2023-03-03T01:32:42;100791.06;;;7.71;62.62
65553;BME280;52465;51.560;14.368;2023-03-03T01:35:08;100805.50;;;7.75;63.17
65553;BME280;52465;51.560;14.368;2023-03-03T01:37:36;100835.41;;;7.91;62.96
65553;BME280;52465;51.560;14.368;2023-03-03T01:40:04;100802.66;;;7.66;62.98
65553;BME280;52465;51.560;14.368;2023-03-03T01:42:30;100837.88;;;7.93;63.43
65553;BME280;52465;51.560;14.368;2023-03-03T01:45:22;100839.66;;;7.92;63.19
65553;BME280;52465;51.560;14.368;2023-03-03T01:50:42;100836.22;;;7.92;62.92
65553;BME280;52465;51.560;14.368;2023-03-03T01:53:21;100819.81;;;7.80;63.07
65553;BME280;52465;51.560;14.368;2023-03-03T01:55:49;100812.25;;;7.66;63.20
65553;BME280;52465;51.560;14.368;2023-03-03T01:58:24;100818.41;;;7.76;63.09
65553;BME280;52465;51.560;14.368;2023-03-03T02:01:19;100827.72;;;7.79;63.34
65553;BME280;52465;51.560;14.368;2023-03-03T02:03:46;100844.16;;;7.90;63.03
65553;BME280;52465;51.560;14.368;2023-03-03T02:06:18;100824.44;;;7.77;63.07
65553;BME280;52465;51.560;14.368;2023-03-03T02:08:50;100790.19;;;7.49;62.65
65553;BME280;52465;51.560;14.368;2023-03-03T02:11:19;100833.31;;;7.74;63.17
65553;BME280;52465;51.560;14.368;2023-03-03T02:13:45;100847.75;;;7.78;63.06
65553;BME280;52465;51.560;14.368;2023-03-03T02:16:10;100816.44;;;7.57;63.07
65553;BME280;52465;51.560;14.368;2023-03-03T02:18:36;100836.03;;;7.73;63.22
65553;BME280;52465;51.560;14.368;2023-03-03T02:21:06;100850.03;;;7.72;62.76
65553;BME280;52465;51.560;14.368;2023-03-03T02:26:08;100857.34;;;7.78;63.23
65553;BME280;52465;51.560;14.368;2023-03-03T02:28:35;100857.16;;;7.69;63.17
65553;BME280;52465;51.560;14.368;2023-03-03T02:31:05;100836.69;;;7.65;62.85
65553;BME280;52465;51.560;14.368;2023-03-03T02:33:31;100857.13;;;7.81;63.33
65553;BME280;52465;51.560;14.368;2023-03-03T02:35:56;100867.28;;;7.84;63.31
65553;BME280;52465;51.560;14.368;2023-03-03T02:41:07;100851.91;;;7.81;63.06
65553;BME280;52465;51.560;14.368;2023-03-03T02:43:59;100841.47;;;7.81;62.46
65553;BME280;52465;51.560;14.368;2023-03-03T02:46:26;100784.00;;;7.50;62.93
65553;BME280;52465;51.560;14.368;2023-03-03T02:48:52;100814.25;;;7.74;62.76
65553;BME280;52465;51.560;14.368;2023-03-03T02:51:17;100805.44;;;7.54;63.17
65553;BME280;52465;51.560;14.368;2023-03-03T02:53:46;100813.09;;;7.66;63.38
65553;BME280;52465;51.560;14.368;2023-03-03T02:56:12;100774.22;;;7.42;62.83
65553;BME280;52465;51.560;14.368;2023-03-03T02:58:37;100812.97;;;7.68;63.03
65553;BME280;52465;51.560;14.368;2023-03-03T03:01:03;100799.16;;;7.56;63.28
65553;BME280;52465;51.560;14.368;2023-03-03T03:03:29;100829.06;;;7.73;63.26
65553;BME280;52465;51.560;14.368;2023-03-03T03:05:55;100840.31;;;7.74;63.04
65553;BME280;52465;51.560;14.368;2023-03-03T03:08:20;100832.97;;;7.67;63.25
65553;BME280;52465;51.560;14.368;2023-03-03T03:10:46;100833.56;;;7.71;63.26
65553;BME280;52465;51.560;14.368;2023-03-03T03:13:14;100835.91;;;7.74;62.80
65553;BME280;52465;51.560;14.368;2023-03-03T03:15:40;100830.00;;;7.72;63.17
65553;BME280;52465;51.560;14.368;2023-03-03T03:18:06;100841.63;;;7.68;62.80
65553;BME280;52465;51.560;14.368;2023-03-03T03:20:53;100834.44;;;7.60;63.18
65553;BME280;52465;51.560;14.368;2023-03-03T03:23:18;100838.78;;;7.71;63.27
65553;BME280;52465;51.560;14.368;2023-03-03T03:25:46;100811.34;;;7.56;62.87
65553;BME280;52465;51.560;14.368;2023-03-03T03:28:15;100825.94;;;7.58;63.31
65553;BME280;52465;51.560;14.368;2023-03-03T03:30:41;100819.28;;;7.54;63.26
65553;BME280;52465;51.560;14.368;2023-03-03T03:33:08;100851.94;;;7.69;63.55
65553;BME280;52465;51.560;14.368;2023-03-03T03:35:35;100842.72;;;7.65;63.02
65553;BME280;52465;51.560;14.368;2023-03-03T03:38:02;100839.41;;;7.63;63.38
65553;BME280;52465;51.560;14.368;2023-03-03T03:40:27;100820.63;;;7.49;63.33
65553;BME280;52465;51.560;14.368;2023-03-03T03:42:53;100858.94;;;7.69;62.56
65553;BME280;52465;51.560;14.368;2023-03-03T03:45:20;100835.06;;;7.53;63.55
65553;BME280;52465;51.560;14.368;2023-03-03T03:47:47;100861.31;;;7.61;63.16
65553;BME280;52465;51.560;14.368;2023-03-03T03:50:12;100882.41;;;7.69;62.69
65553;BME280;52465;51.560;14.368;2023-03-03T03:52:38;100821.25;;;7.30;63.22
65553;BME280;52465;51.560;14.368;2023-03-03T03:55:22;100882.50;;;7.67;63.10
65553;BME280;52465;51.560;14.368;2023-03-03T03:57:49;100865.00;;;7.58;63.34
65553;BME280;52465;51.560;14.368;2023-03-03T04:00:14;100858.59;;;7.51;63.48
65553;BME280;52465;51.560;14.368;2023-03-03T04:02:40;100867.34;;;7.61;63.44
65553;BME280;52465;51.560;14.368;2023-03-03T04:05:06;100854.63;;;7.47;62.93
65553;BME280;52465;51.560;14.368;2023-03-03T04:07:32;100871.41;;;7.54;63.64
65553;BME280;52465;51.560;14.368;2023-03-03T04:09:57;100846.91;;;7.34;63.44
65553;BME280;52465;51.560;14.368;2023-03-03T04:12:23;100860.31;;;7.41;63.01
65553;BME280;52465;51.560;14.368;2023-03-03T04:14:48;100894.81;;;7.65;62.93
65553;BME280;52465;51.560;14.368;2023-03-03T04:17:18;100869.97;;;7.50;63.39
65553;BME280;52465;51.560;14.368;2023-03-03T04:19:44;100856.63;;;7.43;63.84
65553;BME280;52465;51.560;14.368;2023-03-03T04:22:10;100889.03;;;7.62;62.98
65553;BME280;52465;51.560;14.368;2023-03-03T04:24:36;100899.34;;;7.63;63.86
65553;BME280;52465;51.560;14.368;2023-03-03T04:27:05;100904.78;;;7.60;63.55
65553;BME280;52465;51.560;14.368;2023-03-03T04:29:49;100852.25;;;7.33;63.46
65553;BME280;52465;51.560;14.368;2023-03-03T04:32:15;100867.88;;;7.44;63.48
65553;BME280;52465;51.560;14.368;2023-03-03T04:34:42;100900.53;;;7.59;63.13
65553;BME280;52465;51.560;14.368;2023-03-03T04:37:07;100843.41;;;7.24;63.36
65553;BME280;52465;51.560;14.368;2023-03-03T04:39:35;100878.75;;;7.49;63.34
65553;BME280;52465;51.560;14.368;2023-03-03T04:42:02;100881.22;;;7.51;63.21
65553;BME280;52465;51.560;14.368;2023-03-03T04:44:30;100888.47;;;7.58;62.99
65553;BME280;52465;51.560;14.368;2023-03-03T04:46:55;100891.97;;;7.57;62.95
65553;BME280;52465;51.560;14.368;2023-03-03T04:49:21;100888.09;;;7.52;63.72
65553;BME280;52465;51.560;14.368;2023-03-03T04:51:46;100889.88;;;7.51;63.12
65553;BME280;52465;51.560;14.368;2023-03-03T04:54:12;100862.78;;;7.42;63.23
65553;BME280;52465;51.560;14.368;2023-03-03T04:56:37;100841.16;;;7.31;63.15
65553;BME280;52465;51.560;14.368;2023-03-03T04:59:02;100885.13;;;7.56;63.36
65553;BME280;52465;51.560;14.368;2023-03-03T05:01:28;100875.53;;;7.57;63.31
65553;BME280;52465;51.560;14.368;2023-03-03T05:03:53;100858.50;;;7.53;63.53
65553;BME280;52465;51.560;14.368;2023-03-03T05:06:19;100796.16;;;7.29;63.40
65553;BME280;52465;51.560;14.368;2023-03-03T05:08:45;100854.47;;;7.49;63.07
65553;BME280;52465;51.560;14.368;2023-03-03T05:11:11;100861.22;;;7.51;63.99
65553;BME280;52465;51.560;14.368;2023-03-03T05:13:40;100815.00;;;7.21;63.52
65553;BME280;52465;51.560;14.368;2023-03-03T05:16:05;100868.34;;;7.49;63.62
65553;BME280;52465;51.560;14.368;2023-03-03T05:18:31;100878.53;;;7.52;63.01
65553;BME280;52465;51.560;14.368;2023-03-03T05:20:57;100873.41;;;7.51;63.91
65553;BME280;52465;51.560;14.368;2023-03-03T05:23:22;100858.63;;;7.40;63.55
65553;BME280;52465;51.560;14.368;2023-03-03T05:25:49;100807.69;;;7.04;62.90
65553;BME280;52465;51.560;14.368;2023-03-03T05:28:15;100876.00;;;7.51;63.95
65553;BME280;52465;51.560;14.368;2023-03-03T05:30:41;100866.09;;;7.45;63.17
65553;BME280;52465;51.560;14.368;2023-03-03T05:33:07;100855.19;;;7.39;63.30
65553;BME280;52465;51.560;14.368;2023-03-03T05:35:32;100860.50;;;7.49;63.47
65553;BME280;52465;51.560;14.368;2023-03-03T05:37:59;100864.78;;;7.50;63.80
65553;BME280;52465;51.560;14.368;2023-03-03T05:40:28;100832.50;;;7.30;63.16
65553;BME280;52465;51.560;14.368;2023-03-03T05:42:53;100845.88;;;7.37;63.41
65553;BME280;52465;51.560;14.368;2023-03-03T05:45:19;100816.63;;;7.22;63.23
65553;BME280;52465;51.560;14.368;2023-03-03T05:47:56;100795.00;;;7.10;62.79
65553;BME280;52465;51.560;14.368;2023-03-03T05:50:24;100836.41;;;7.36;63.36
65553;BME280;52465;51.560;14.368;2023-03-03T05:52:50;100856.38;;;7.47;63.06
65553;BME280;52465;51.560;14.368;2023-03-03T05:55:16;100826.94;;;7.24;62.92
65553;BME280;52465;51.560;14.368;2023-03-03T05:57:42;100813.22;;;7.10;63.52
65553;BME280;52465;51.560;14.368;2023-03-03T06:00:10;100860.06;;;7.33;62.92
65553;BME280;52465;51.560;14.368;2023-03-03T06:02:37;100818.44;;;6.99;63.45
65553;BME280;52465;51.560;14.368;2023-03-03T06:05:03;100900.78;;;7.45;62.84
65553;BME280;52465;51.560;14.368;2023-03-03T06:07:28;100887.41;;;7.38;63.29
65553;BME280;52465;51.560;14.368;2023-03-03T06:09:54;100883.28;;;7.36;63.57
65553;BME280;52465;51.560;14.368;2023-03-03T06:12:19;100905.16;;;7.45;63.93
65553;BME280;52465;51.560;14.368;2023-03-03T06:14:45;100863.16;;;7.15;63.83
65553;BME280;52465;51.560;14.368;2023-03-03T06:17:13;100904.47;;;7.42;63.26
65553;BME280;52465;51.560;14.368;2023-03-03T06:19:38;100882.00;;;7.19;63.07
65553;BME280;52465;51.560;14.368;2023-03-03T06:22:06;100918.53;;;7.40;63.64
65553;BME280;52465;51.560;14.368;2023-03-03T06:24:32;100906.47;;;7.39;63.29
65553;BME280;52465;51.560;14.368;2023-03-03T06:26:58;100914.16;;;7.40;63.18
65553;BME280;52465;51.560;14.368;2023-03-03T06:29:24;100902.81;;;7.30;63.05
65553;BME280;52465;51.560;14.368;2023-03-03T06:31:50;100921.16;;;7.40;63.76
65553;BME280;52465;51.560;14.368;2023-03-03T06:34:15;100883.03;;;7.16;63.24
65553;BME280;52465;51.560;14.368;2023-03-03T06:36:41;100907.31;;;7.28;63.54
65553;BME280;52465;51.560;14.368;2023-03-03T06:39:07;100922.91;;;7.39;63.46
65553;BME280;52465;51.560;14.368;2023-03-03T06:41:32;100919.50;;;7.39;63.54
65553;BME280;52465;51.560;14.368;2023-03-03T06:43:58;100913.59;;;7.37;63.14
65553;BME280;52465;51.560;14.368;2023-03-03T06:46:26;100918.06;;;7.35;64.00
65553;BME280;52465;51.560;14.368;2023-03-03T06:48:53;100887.56;;;7.14;62.93
65553;BME280;52465;51.560;14.368;2023-03-03T06:51:37;100915.72;;;7.32;63.07
65553;BME280;52465;51.560;14.368;2023-03-03T06:54:13;100931.81;;;7.37;63.17
65553;BME280;52465;51.560;14.368;2023-03-03T06:56:40;100895.84;;;7.20;63.96
65553;BME280;52465;51.560;14.368;2023-03-03T06:59:20;100929.34;;;7.35;63.19
65553;BME280;52465;51.560;14.368;2023-03-03T07:01:48;100907.22;;;7.19;63.57
65553;BME280;52465;51.560;14.368;2023-03-03T07:04:27;100935.47;;;7.34;63.40
65553;BME280;52465;51.560;14.368;2023-03-03T07:06:54;100901.41;;;7.15;63.19
65553;BME280;52465;51.560;14.368;2023-03-03T07:09:25;100928.50;;;7.35;63.76
65553;BME280;52465;51.560;14.368;2023-03-03T07:11:52;100924.47;;;7.31;63.16
65553;BME280;52465;51.560;14.368;2023-03-03T07:14:20;100895.84;;;7.08;63.39
65553;BME280;52465;51.560;14.368;2023-03-03T07:16:51;100928.97;;;7.29;62.84
65553;BME280;52465;51.560;14.368;2023-03-03T07:19:45;100929.91;;;7.28;63.23
65553;BME280;52465;51.560;14.368;2023-03-03T07:22:17;100930.53;;;7.31;63.16
65553;BME280;52465;51.560;14.368;2023-03-03T07:24:45;100935.72;;;7.31;63.43
65553;BME280;52465;51.560;14.368;2023-03-03T07:27:28;100930.66;;;7.30;63.00
65553;BME280;52465;51.560;14.368;2023-03-03T07:32:39;100928.41;;;7.25;63.11
65553;BME280;52465;51.560;14.368;2023-03-03T07:35:28;100937.03;;;7.26;63.72
65553;BME280;52465;51.560;14.368;2023-03-03T07:37:54;100938.34;;;7.31;63.45
65553;BME280;52465;51.560;14.368;2023-03-03T07:40:38;100946.28;;;7.30;63.59
65553;BME280;52465;51.560;14.368;2023-03-03T07:43:30;100955.00;;;7.29;63.33
65553;BME280;52465;51.560;14.368;2023-03-03T07:48:36;100951.81;;;7.14;63.21
65553;BME280;52465;51.560;14.368;2023-03-03T07:51:11;100953.13;;;7.20;63.03
65553;BME280;52465;51.560;14.368;2023-03-03T07:54:28;100974.19;;;7.28;63.46
65553;BME280;52465;51.560;14.368;2023-03-03T07:56:57;100955.94;;;7.16;63.72
65553;BME280;52465;51.560;14.368;2023-03-03T07:59:26;100973.38;;;7.27;63.18
65553;BME280;52465;51.560;14.368;2023-03-03T08:01:53;100974.19;;;7.28;63.73
65553;BME280;52465;51.560;14.368;2023-03-03T08:04:41;100978.56;;;7.27;63.51
65553;BME280;52465;51.560;14.368;2023-03-03T08:07:20;100968.41;;;7.24;63.41
65553;BME280;52465;51.560;14.368;2023-03-03T08:09:47;100976.91;;;7.26;63.42
65553;BME280;52465;51.560;14.368;2023-03-03T08:17:59;100942.72;;;7.20;63.16
65553;BME280;52465;51.560;14.368;2023-03-03T08:20:42;100952.53;;;7.27;63.49
65553;BME280;52465;51.560;14.368;2023-03-03T08:23:13;100955.13;;;7.27;63.18
65553;BME280;52465;51.560;14.368;2023-03-03T08:25:39;100963.19;;;7.24;63.61
65553;BME280;52465;51.560;14.368;2023-03-03T08:28:06;100917.25;;;7.01;62.82
65553;BME280;52465;51.560;14.368;2023-03-03T08:30:35;100968.97;;;7.28;63.60
65553;BME280;52465;51.560;14.368;2023-03-03T08:33:00;100968.97;;;7.28;63.31
65553;BME280;52465;51.560;14.368;2023-03-03T08:35:26;100956.22;;;7.25;63.41
65553;BME280;52465;51.560;14.368;2023-03-03T08:37:51;100867.19;;;6.63;63.46
65553;BME280;52465;51.560;14.368;2023-03-03T08:40:17;100974.31;;;7.26;63.23
65553;BME280;52465;51.560;14.368;2023-03-03T08:43:02;100961.28;;;7.26;63.86
65553;BME280;52465;51.560;14.368;2023-03-03T08:45:33;100957.50;;;7.19;63.56
65553;BME280;52465;51.560;14.368;2023-03-03T08:47:59;100974.53;;;7.23;63.34
65553;BME280;52465;51.560;14.368;2023-03-03T08:50:26;100966.50;;;7.15;63.64
65553;BME280;52465;51.560;14.368;2023-03-03T08:52:51;100967.31;;;7.15;63.41
65553;BME280;52465;51.560;14.368;2023-03-03T08:55:17;100979.66;;;7.25;63.34
65553;BME280;52465;51.560;14.368;2023-03-03T08:57:46;100983.19;;;7.24;63.87
65553;BME280;52465;51.560;14.368;2023-03-03T09:00:14;100984.72;;;7.26;63.70
65553;BME280;52465;51.560;14.368;2023-03-03T09:02:40;100962.47;;;7.11;63.50
65553;BME280;52465;51.560;14.368;2023-03-03T09:05:06;100979.03;;;7.21;63.35
65553;BME280;52465;51.560;14.368;2023-03-03T09:07:32;100980.47;;;7.25;63.61
65553;BME280;52465;51.560;14.368;2023-03-03T09:09:58;100969.22;;;7.25;63.56
65553;BME280;52465;51.560;14.368;2023-03-03T09:12:34;100978.09;;;7.22;63.12
65553;BME280;52465;51.560;14.368;2023-03-03T09:15:33;100971.94;;;7.23;63.37
65553;BME280;52465;51.560;14.368;2023-03-03T09:20:53;100976.22;;;7.24;63.09
65553;BME280;52465;51.560;14.368;2023-03-03T09:31:49;100992.75;;;7.23;63.28
65553;BME280;52465;51.560;14.368;2023-03-03T09:34:48;100974.53;;;7.12;62.70
65553;BME280;52465;51.560;14.368;2023-03-03T09:37:25;100988.63;;;7.21;62.94
65553;BME280;52465;51.560;14.368;2023-03-03T09:39:56;100993.72;;;7.22;63.17
65553;BME280;52465;51.560;14.368;2023-03-03T09:45:43;100990.41;;;7.20;63.72
65553;BME280;52465;51.560;14.368;2023-03-03T09:51:22;100993.84;;;7.21;63.12
65553;BME280;52465;51.560;14.368;2023-03-03T09:56:38;100989.47;;;7.21;63.72
65553;BME280;52465;51.560;14.368;2023-03-03T09:59:30;100998.22;;;7.20;63.20
65553;BME280;52465;51.560;14.368;2023-03-03T10:05:23;100996.56;;;7.19;63.83
65553;BME280;52465;51.560;14.368;2023-03-03T10:10:55;101002.59;;;7.20;63.21
65553;BME280;52465;51.560;14.368;2023-03-03T10:19:06;101017.28;;;7.21;63.71
65553;BME280;52465;51.560;14.368;2023-03-03T10:21:57;101023.53;;;7.18;62.89
65553;BME280;52465;51.560;14.368;2023-03-03T10:24:29;100995.72;;;7.07;63.36
65553;BME280;52465;51.560;14.368;2023-03-03T10:27:07;101018.78;;;7.12;63.52
65553;BME280;52465;51.560;14.368;2023-03-03T10:32:42;101024.81;;;7.12;63.07
65553;BME280;52465;51.560;14.368;2023-03-03T10:35:45;101021.53;;;7.10;63.21
65553;BME280;52465;51.560;14.368;2023-03-03T10:38:28;101021.75;;;7.07;63.53
65553;BME280;52465;51.560;14.368;2023-03-03T10:44:53;101009.56;;;6.97;63.28
65553;BME280;52465;51.560;14.368;2023-03-03T10:47:54;101023.41;;;7.08;63.26
65553;BME280;52465;51.560;14.368;2023-03-03T10:50:31;101023.28;;;7.10;63.89
65553;BME280;52465;51.560;14.368;2023-03-03T10:56:12;101023.41;;;7.08;63.61
65553;BME280;52465;51.560;14.368;2023-03-03T10:58:48;101015.81;;;7.05;62.89
65553;BME280;52465;51.560;14.368;2023-03-03T11:01:58;101009.56;;;7.08;63.84
65553;BME280;52465;51.560;14.368;2023-03-03T11:09:52;101002.69;;;7.07;63.48
65553;BME280;52465;51.560;14.368;2023-03-03T11:18:26;100974.97;;;6.95;63.16
65553;BME280;52465;51.560;14.368;2023-03-03T11:23:40;100895.13;;;6.38;63.74
65553;BME280;52465;51.560;14.368;2023-03-03T11:29:10;100962.56;;;6.98;63.30
65553;BME280;52465;51.560;14.368;2023-03-03T11:31:53;100986.00;;;7.09;63.03
65553;BME280;52465;51.560;14.368;2023-03-03T11:34:28;100964.00;;;7.02;63.39
65553;BME280;52465;51.560;14.368;2023-03-03T11:39:36;100975.59;;;7.09;63.27
65553;BME280;52465;51.560;14.368;2023-03-03T11:42:07;100974.66;;;7.10;63.25
65553;BME280;52465;51.560;14.368;2023-03-03T11:44:48;100947.28;;;6.94;63.00
65553;BME280;52465;51.560;14.368;2023-03-03T11:47:37;100955.47;;;7.00;63.79
65553;BME280;52465;51.560;14.368;2023-03-03T11:50:25;100972.03;;;7.10;63.31
65553;BME280;52465;51.560;14.368;2023-03-03T11:55:35;100959.97;;;7.09;63.45
65553;BME280;52465;51.560;14.368;2023-03-03T11:58:26;100955.00;;;7.06;63.44
65553;BME280;52465;51.560;14.368;2023-03-03T12:01:04;100955.94;;;7.05;63.53
65553;BME280;52465;51.560;14.368;2023-03-03T12:06:22;100938.31;;;6.98;63.14
65553;BME280;52465;51.560;14.368;2023-03-03T12:09:02;100944.72;;;7.16;63.11
65553;BME280;52465;51.560;14.368;2023-03-03T12:14:29;100949.81;;;7.29;62.35
65553;BME280;52465;51.560;14.368;2023-03-03T12:17:09;100954.44;;;7.36;62.69
65553;BME280;52465;51.560;14.368;2023-03-03T12:20:13;100943.41;;;7.44;62.59
65553;BME280;52465;51.560;14.368;2023-03-03T12:28:32;100918.78;;;7.48;62.28
65553;BME280;52465;51.560;14.368;2023-03-03T12:34:08;100941.13;;;7.73;62.02
65553;BME280;52465;51.560;14.368;2023-03-03T12:39:43;100943.13;;;7.81;61.99
65553;BME280;52465;51.560;14.368;2023-03-03T12:42:24;100938.50;;;7.84;61.80
65553;BME280;52465;51.560;14.368;2023-03-03T12:48:05;100928.88;;;7.85;61.78
65553;BME280;52465;51.560;14.368;2023-03-03T12:56:44;100931.84;;;7.91;61.81
65553;BME280;52465;51.560;14.368;2023-03-03T12:59:24;100939.75;;;8.01;61.79
65553;BME280;52465;51.560;14.368;2023-03-03T13:10:34;100938.56;;;8.05;61.74
65553;BME280;52465;51.560;14.368;2023-03-03T13:15:31;100918.66;;;8.04;62.00
65553;BME280;52465;51.560;14.368;2023-03-03T13:20:54;100912.13;;;8.10;62.00
65553;BME280;52465;51.560;14.368;2023-03-03T13:23:42;100903.47;;;8.09;61.67
65553;BME280;52465;51.560;14.368;2023-03-03T13:26:21;100890.44;;;8.09;61.89
65553;BME280;52465;51.560;14.368;2023-03-03T13:29:13;100893.03;;;8.09;62.20
65553;BME280;52465;51.560;14.368;2023-03-03T13:31:46;100879.69;;;8.03;61.62
65553;BME280;52465;51.560;14.368;2023-03-03T13:34:31;100880.88;;;7.99;62.17
65553;BME280;52465;51.560;14.368;2023-03-03T13:37:13;100881.56;;;8.01;61.75
65553;BME280;52465;51.560;14.368;2023-03-03T13:42:41;100850.94;;;7.82;61.70
65553;BME280;52465;51.560;14.368;2023-03-03T13:48:15;100896.84;;;8.05;61.93
65553;BME280;52465;51.560;14.368;2023-03-03T13:51:13;100904.97;;;8.12;61.86
65553;BME280;52465;51.560;14.368;2023-03-03T13:53:51;100916.25;;;8.12;61.71
65553;BME280;52465;51.560;14.368;2023-03-03T14:05:07;100902.50;;;8.10;62.00
65553;BME280;52465;51.560;14.368;2023-03-03T14:10:41;100852.47;;;7.84;62.19
65553;BME280;52465;51.560;14.368;2023-03-03T14:13:18;100878.94;;;8.01;61.92
65553;BME280;52465;51.560;14.368;2023-03-03T14:18:54;100877.16;;;8.01;62.14
65553;BME280;52465;51.560;14.368;2023-03-03T14:21:28;100889.97;;;8.04;62.43
65553;BME280;52465;51.560;14.368;2023-03-03T14:24:21;100879.28;;;8.07;62.34
65553;BME280;52465;51.560;14.368;2023-03-03T14:26:53;100872.69;;;8.03;62.27
65553;BME280;52465;51.560;14.368;2023-03-03T14:31:59;100871.84;;;8.03;62.02
65553;BME280;52465;51.560;14.368;2023-03-03T14:34:29;100892.44;;;8.06;61.59
65553;BME280;52465;51.560;14.368;2023-03-03T14:42:55;100856.84;;;7.84;62.02
65553;BME280;52465;51.560;14.368;2023-03-03T14:45:35;100876.97;;;7.93;61.90
65553;BME280;52465;51.560;14.368;2023-03-03T14:50:40;100896.16;;;8.03;61.95
65553;BME280;52465;51.560;14.368;2023-03-03T14:55:46;100875.06;;;7.95;62.56
65553;BME280;52465;51.560;14.368;2023-03-03T14:58:25;100876.47;;;7.99;61.95
65553;BME280;52465;51.560;14.368;2023-03-03T15:06:54;100865.97;;;7.89;62.33
65553;BME280;52465;51.560;14.368;2023-03-03T15:09:34;100868.06;;;7.95;62.29
65553;BME280;52465;51.560;14.368;2023-03-03T15:14:44;100839.94;;;7.78;61.84
65553;BME280;52465;51.560;14.368;2023-03-03T15:33:52;100847.72;;;7.89;62.44
65553;BME280;52465;51.560;14.368;2023-03-03T15:36:29;100851.13;;;7.90;62.26
65553;BME280;52465;51.560;14.368;2023-03-03T15:39:10;100817.44;;;7.77;62.31
65553;BME280;52465;51.560;14.368;2023-03-03T15:42:04;100846.75;;;7.90;62.04
65553;BME280;52465;51.560;14.368;2023-03-03T15:50:34;100845.25;;;7.88;62.18
65553;BME280;52465;51.560;14.368;2023-03-03T15:53:24;100834.34;;;7.83;62.45
65553;BME280;52465;51.560;14.368;2023-03-03T15:56:14;100840.25;;;7.85;62.39
65553;BME280;52465;51.560;14.368;2023-03-03T16:01:31;100849.03;;;7.84;62.22
65553;BME280;52465;51.560;14.368;2023-03-03T16:04:00;100841.22;;;7.84;62.53
65553;BME280;52465;51.560;14.368;2023-03-03T16:06:53;100835.31;;;7.82;62.04
65553;BME280;52465;51.560;14.368;2023-03-03T16:10:01;100843.97;;;7.82;62.05
65553;BME280;52465;51.560;14.368;2023-03-03T16:12:46;100845.75;;;7.82;62.74
65553;BME280;52465;51.560;14.368;2023-03-03T16:15:43;100833.66;;;7.81;62.34
65553;BME280;52465;51.560;14.368;2023-03-03T16:18:22;100831.97;;;7.80;63.13
65553;BME280;52465;51.560;14.368;2023-03-03T16:21:21;100831.97;;;7.80;62.39
65553;BME280;52465;51.560;14.368;2023-03-03T16:23:59;100822.06;;;7.74;62.85
65553;BME280;52465;51.560;14.368;2023-03-03T16:26:52;100834.03;;;7.76;62.73
65553;BME280;52465;51.560;14.368;2023-03-03T16:29:31;100833.06;;;7.77;62.13
65553;BME280;52465;51.560;14.368;2023-03-03T16:32:09;100839.09;;;7.78;62.30
65553;BME280;52465;51.560;14.368;2023-03-03T16:34:41;100846.09;;;7.77;62.57